createdAt,value
2019-03-28T00:00:05.608Z,22.40
2019-03-28T00:05:08.137Z,24.97
2019-03-28T00:10:10.090Z,25.70
2019-03-28T00:15:12.169Z,26.07
2019-03-28T00:20:16.335Z,24.33
2019-03-28T00:25:22.106Z,27.17
2019-03-28T00:30:23.887Z,29.70
2019-03-28T00:35:26.219Z,31.30
2019-03-28T00:40:28.530Z,32.20
2019-03-28T00:45:31.210Z,30.40
2019-03-28T00:50:33.248Z,28.67
2019-03-28T00:55:35.096Z,30.80
2019-03-28T01:00:36.877Z,31.60
2019-03-28T01:05:38.566Z,26.80
2019-03-28T01:10:40.531Z,31.10
2019-03-28T01:15:42.203Z,25.10
2019-03-28T01:20:43.979Z,28.40
2019-03-28T01:25:45.658Z,27.60
2019-03-28T01:30:47.431Z,24.00
2019-03-28T01:35:49.110Z,28.93
2019-03-28T01:40:51.114Z,24.93
2019-03-28T01:45:52.889Z,28.07
2019-03-28T01:50:54.570Z,26.90
2019-03-28T01:55:56.255Z,30.30
2019-03-28T02:00:57.895Z,29.50
2019-03-28T02:05:59.661Z,27.83
2019-03-28T02:11:01.519Z,31.30
2019-03-28T02:16:03.300Z,33.80
2019-03-28T02:21:04.976Z,28.17
2019-03-28T02:26:06.660Z,30.17
2019-03-28T02:31:08.365Z,29.63
2019-03-28T02:36:10.094Z,30.20
2019-03-28T02:41:11.820Z,28.13
2019-03-28T02:46:14.011Z,29.90
2019-03-28T02:51:16.516Z,26.53
2019-03-28T02:56:18.189Z,28.07
2019-03-28T03:01:19.877Z,26.40
2019-03-28T03:06:22.048Z,27.30
2019-03-28T03:11:23.731Z,25.83
2019-03-28T03:16:25.918Z,27.33
2019-03-28T03:21:27.922Z,31.63
2019-03-28T03:26:29.586Z,30.73
2019-03-28T03:31:31.310Z,24.10
2019-03-28T03:36:33.089Z,28.00
2019-03-28T03:41:35.046Z,27.50
2019-03-28T03:46:37.450Z,28.60
2019-03-28T03:51:39.165Z,29.60
2019-03-28T03:56:41.159Z,34.63
2019-03-28T04:01:42.963Z,30.57
2019-03-28T04:06:45.079Z,29.90
2019-03-28T04:11:47.213Z,28.67
2019-03-28T04:16:48.866Z,32.43
2019-03-28T04:21:50.689Z,25.80
2019-03-28T04:26:52.699Z,30.00
2019-03-28T04:31:54.409Z,26.37
2019-03-28T04:36:56.099Z,25.97
2019-03-28T04:41:58.004Z,25.13
2019-03-28T04:46:59.704Z,28.10
2019-03-28T04:52:01.407Z,25.47
2019-03-28T04:57:03.111Z,21.77
2019-03-28T05:02:05.121Z,26.07
2019-03-28T05:07:07.127Z,24.03
2019-03-28T05:12:08.828Z,26.90
2019-03-28T05:17:10.540Z,23.77
2019-03-28T05:22:12.332Z,30.90
2019-03-28T05:27:16.511Z,28.90
2019-03-28T05:32:17.577Z,32.97
2019-03-28T05:37:19.269Z,28.60
2019-03-28T05:42:21.378Z,32.87
2019-03-28T05:47:23.099Z,34.80
2019-03-28T05:52:25.285Z,31.47
2019-03-28T05:57:27.001Z,38.83
2019-03-28T06:02:29.182Z,31.30
2019-03-28T06:07:30.973Z,30.13
2019-03-28T06:12:32.724Z,32.07
2019-03-28T06:17:34.344Z,33.10
2019-03-28T06:22:36.070Z,29.13
2019-03-28T06:27:37.732Z,28.60
2019-03-28T06:32:43.228Z,22.23
2019-03-28T06:37:42.904Z,22.30
2019-03-28T06:42:46.634Z,19.60
2019-03-28T06:47:48.292Z,19.27
2019-03-28T06:52:49.996Z,19.30
2019-03-28T06:57:52.023Z,22.57
2019-03-28T07:02:53.653Z,23.53
2019-03-28T07:07:55.693Z,20.23
2019-03-28T07:13:00.604Z,18.10
2019-03-28T07:18:02.308Z,20.60
2019-03-28T07:23:05.742Z,19.90
2019-03-28T07:28:08.187Z,21.47
2019-03-28T07:33:09.890Z,16.93
2019-03-28T07:38:11.541Z,17.30
2019-03-28T07:43:13.620Z,20.10
2019-03-28T07:48:15.339Z,18.23
2019-03-28T07:53:19.707Z,18.17
2019-03-28T07:58:20.790Z,21.43
2019-03-28T08:03:23.523Z,20.67
2019-03-28T08:08:38.019Z,17.63
2019-03-28T08:13:29.250Z,22.20
2019-03-28T08:18:30.883Z,19.77
2019-03-28T08:23:35.267Z,21.40
2019-03-28T08:28:41.297Z,21.33
2019-03-28T08:33:43.433Z,23.30
2019-03-28T08:38:46.083Z,24.83
2019-03-28T08:43:47.887Z,25.77
2019-03-28T08:48:51.933Z,26.43
2019-03-28T08:53:53.653Z,31.70
2019-03-28T08:58:55.439Z,24.27
2019-03-28T09:03:57.273Z,22.90
2019-03-28T09:09:00.376Z,19.73
2019-03-28T09:14:02.497Z,18.60
2019-03-28T09:19:04.292Z,15.57
2019-03-28T09:24:06.292Z,16.43
2019-03-28T09:29:07.940Z,14.80
2019-03-28T09:34:09.684Z,16.63
2019-03-28T09:39:11.338Z,19.07
2019-03-28T09:44:14.823Z,17.43
2019-03-28T09:49:17.105Z,16.30
2019-03-28T09:54:19.215Z,15.17
2019-03-28T09:59:21.016Z,14.67
2019-03-28T10:04:23.068Z,12.67
2019-03-28T10:09:25.249Z,13.17
2019-03-28T10:14:27.931Z,11.87
2019-03-28T10:19:29.573Z,11.03
2019-03-28T10:24:31.241Z,8.40
2019-03-28T10:29:32.922Z,7.33
2019-03-28T10:34:35.038Z,8.20
2019-03-28T10:39:36.669Z,5.53
2019-03-28T10:44:38.335Z,4.93
2019-03-28T10:49:41.470Z,4.33
2019-03-28T10:54:43.400Z,3.23
2019-03-28T10:59:45.192Z,3.17
2019-03-28T11:04:47.277Z,3.03
2019-03-28T11:09:52.141Z,2.10
2019-03-28T11:15:00.402Z,2.60
2019-03-28T11:20:03.723Z,9.20
2019-03-28T11:25:06.919Z,2.40
2019-03-28T11:30:09.469Z,2.47
2019-03-28T11:35:11.768Z,1.60
2019-03-28T11:40:14.162Z,1.20
2019-03-28T11:45:16.192Z,1.10
2019-03-28T11:50:18.268Z,1.80
2019-03-28T11:55:20.070Z,1.10
2019-03-28T12:00:21.781Z,1.17
2019-03-28T12:05:23.543Z,1.87
2019-03-28T12:10:26.475Z,1.37
2019-03-28T12:15:28.189Z,1.80
2019-03-28T12:20:30.264Z,1.63
2019-03-28T12:25:31.918Z,2.27
2019-03-28T12:30:33.578Z,1.60
2019-03-28T12:35:36.497Z,1.80
2019-03-28T12:40:38.171Z,1.40
2019-03-28T12:45:40.267Z,2.03
2019-03-28T12:50:42.455Z,2.00
2019-03-28T12:55:44.142Z,1.83
2019-03-28T13:00:45.773Z,2.40
2019-03-28T13:05:47.495Z,2.97
2019-03-28T13:10:49.223Z,2.43
2019-03-28T13:22:08.923Z,2.90
2019-03-28T13:27:10.723Z,3.30
2019-03-28T13:32:12.512Z,2.70
2019-03-28T13:37:14.306Z,3.20
2019-03-28T13:42:16.105Z,3.43
2019-03-28T13:47:18.219Z,3.33
2019-03-28T13:52:20.308Z,2.90
2019-03-28T13:57:22.689Z,2.83
2019-03-28T14:02:24.596Z,3.47
2019-03-28T14:07:26.920Z,3.43
2019-03-28T14:12:31.479Z,4.17
2019-03-28T14:17:35.009Z,3.67
2019-03-28T14:22:36.970Z,3.50
2019-03-28T14:27:38.717Z,4.80
2019-03-28T14:32:52.684Z,3.80
2019-03-28T14:37:44.033Z,4.33
2019-03-28T14:42:45.737Z,4.27
2019-03-28T14:47:47.964Z,4.53
2019-03-28T14:52:49.710Z,3.53
2019-03-28T14:57:51.443Z,3.53
2019-03-28T15:02:53.213Z,4.80
2019-03-28T15:07:54.952Z,3.50
2019-03-28T15:12:58.418Z,3.87
2019-03-28T15:18:06.446Z,4.30
2019-03-28T15:23:16.234Z,3.37
2019-03-28T15:28:18.681Z,3.80
2019-03-28T15:33:20.314Z,4.10
2019-03-28T15:38:22.352Z,3.27
2019-03-28T15:43:24.133Z,3.57
2019-03-28T15:48:26.186Z,2.67
2019-03-28T15:53:27.896Z,3.80
2019-03-28T15:58:29.642Z,3.53
2019-03-28T16:03:31.380Z,4.00
2019-03-28T16:08:33.154Z,3.10
2019-03-28T16:13:37.548Z,3.37
2019-03-28T16:18:39.539Z,3.00
2019-03-28T16:23:41.798Z,3.10
2019-03-28T16:28:46.799Z,2.90
2019-03-28T16:33:48.739Z,3.43
2019-03-28T16:38:50.454Z,3.10
2019-03-28T16:43:52.201Z,2.70
2019-03-28T16:48:55.082Z,3.30
2019-03-28T16:53:56.844Z,2.73
2019-03-28T16:58:58.592Z,3.23
2019-03-28T17:04:00.431Z,2.30
2019-03-28T17:09:03.976Z,2.93
2019-03-28T17:14:06.099Z,2.83
2019-03-28T17:19:15.196Z,3.27
2019-03-28T17:24:24.597Z,3.10
2019-03-28T17:29:27.262Z,2.97
2019-03-28T17:34:35.141Z,2.63
2019-03-28T17:39:32.923Z,3.00
2019-03-28T17:44:34.531Z,4.80
2019-03-28T17:49:36.158Z,4.00
2019-03-28T17:54:38.224Z,5.20
2019-03-28T17:59:39.814Z,4.43
2019-03-28T18:04:47.740Z,4.00
2019-03-28T18:09:45.135Z,4.90
2019-03-28T18:14:47.306Z,4.80
2019-03-28T18:19:49.091Z,4.50
2019-03-28T18:24:51.159Z,4.37
2019-03-28T18:29:53.696Z,6.27
2019-03-28T18:35:05.269Z,5.07
2019-03-28T18:39:59.116Z,6.03
2019-03-28T18:45:01.091Z,5.90
2019-03-28T18:50:04.899Z,8.20
2019-03-28T18:55:07.110Z,11.10
2019-03-28T19:00:09.014Z,13.50
2019-03-28T19:05:19.602Z,15.17
2019-03-28T19:10:17.009Z,14.07
2019-03-28T19:15:18.938Z,14.93
2019-03-28T19:20:20.851Z,15.17
2019-03-28T19:25:23.031Z,21.80
2019-03-28T19:30:32.795Z,19.17
2019-03-28T19:35:35.504Z,18.60
2019-03-28T19:40:37.335Z,18.13
2019-03-28T19:45:39.116Z,18.73
2019-03-28T19:50:41.824Z,18.50
2019-03-28T19:55:44.458Z,19.83
2019-03-28T20:00:46.731Z,21.20
2019-03-28T20:05:50.069Z,17.93
2019-03-28T20:10:52.161Z,21.00
2019-03-28T20:15:53.963Z,19.10
2019-03-28T20:20:56.132Z,20.37
2019-03-28T20:25:58.999Z,21.10
2019-03-28T20:31:01.458Z,21.33
2019-03-28T20:36:30.072Z,25.30
2019-03-28T20:41:06.903Z,20.70
2019-03-28T20:46:08.494Z,15.60
2019-03-28T20:51:10.210Z,20.03
2019-03-28T20:56:12.290Z,19.40
2019-03-28T21:01:14.629Z,17.73
2019-03-28T21:06:19.353Z,20.10
2019-03-28T21:11:20.361Z,18.03
2019-03-28T21:16:22.165Z,21.70
2019-03-28T21:21:24.527Z,16.77
2019-03-28T21:26:26.158Z,18.67
2019-03-28T21:31:28.367Z,21.23
2019-03-28T21:36:30.617Z,23.43
2019-03-28T21:41:33.688Z,23.23
2019-03-28T21:46:35.345Z,21.47
2019-03-28T21:51:37.053Z,18.87
2019-03-28T21:56:41.311Z,20.23
2019-03-28T22:01:42.701Z,21.43
2019-03-28T22:06:44.291Z,17.50
2019-03-28T22:11:45.985Z,20.80
2019-03-28T22:16:49.864Z,19.27
2019-03-28T22:21:52.176Z,23.77
2019-03-28T22:26:54.206Z,18.27
2019-03-28T22:31:56.947Z,20.90
2019-03-28T22:37:03.480Z,17.30
2019-03-28T22:42:03.788Z,20.20
2019-03-28T22:47:06.119Z,20.40
2019-03-28T22:52:09.798Z,18.77
2019-03-28T22:57:11.435Z,17.50
2019-03-28T23:02:13.155Z,21.50
2019-03-28T23:07:15.244Z,18.27
2019-03-28T23:12:16.940Z,19.40
2019-03-28T23:17:21.072Z,20.50
2019-03-28T23:22:23.308Z,14.90
2019-03-28T23:27:25.111Z,10.40
2019-03-28T23:32:26.924Z,8.63
2019-03-28T23:37:28.531Z,9.87
2019-03-28T23:42:30.567Z,9.07
2019-03-28T23:47:32.266Z,11.07
2019-03-28T23:52:33.968Z,13.53
2019-03-28T23:57:35.638Z,15.20
